sensor_id;sensor_type;location;lat;lon;timestamp;temperature;humidity
19888;DHT22;10106;51.332;12.336;2022-08-23T00:01:20;16.60;99.90
19888;DHT22;10106;51.332;12.336;2022-08-23T00:03:47;16.60;99.90
19888;DHT22;10106;51.332;12.336;2022-08-23T00:06:12;16.60;99.90
19888;DHT22;10106;51.332;12.336;2022-08-23T00:08:39;16.60;99.90
19888;DHT22;10106;51.332;12.336;2022-08-23T00:11:05;16.60;99.90
19888;DHT22;10106;51.332;12.336;2022-08-23T00:13:31;16.70;99.90
19888;DHT22;10106;51.332;12.336;2022-08-23T00:15:58;16.60;99.90
19888;DHT22;10106;51.332;12.336;2022-08-23T00:18:25;16.70;99.90
19888;DHT22;10106;51.332;12.336;2022-08-23T00:20:51;16.60;99.90
19888;DHT22;10106;51.332;12.336;2022-08-23T00:23:17;16.50;99.90
19888;DHT22;10106;51.332;12.336;2022-08-23T00:25:42;16.50;99.90
19888;DHT22;10106;51.332;12.336;2022-08-23T00:28:08;16.50;99.90
19888;DHT22;10106;51.332;12.336;2022-08-23T00:30:35;16.40;99.90
19888;DHT22;10106;51.332;12.336;2022-08-23T00:33:01;16.40;99.90
19888;DHT22;10106;51.332;12.336;2022-08-23T00:35:27;16.40;99.90
19888;DHT22;10106;51.332;12.336;2022-08-23T00:37:54;16.30;99.90
19888;DHT22;10106;51.332;12.336;2022-08-23T00:40:20;16.30;99.90
19888;DHT22;10106;51.332;12.336;2022-08-23T00:42:53;16.20;99.90
19888;DHT22;10106;51.332;12.336;2022-08-23T00:48:26;16.20;99.90
19888;DHT22;10106;51.332;12.336;2022-08-23T00:53:40;16.10;99.90
19888;DHT22;10106;51.332;12.336;2022-08-23T00:56:09;16.10;99.90
19888;DHT22;10106;51.332;12.336;2022-08-23T00:58:36;16.10;99.90
19888;DHT22;10106;51.332;12.336;2022-08-23T01:01:04;16.10;99.90
19888;DHT22;10106;51.332;12.336;2022-08-23T01:03:32;16.10;99.90
19888;DHT22;10106;51.332;12.336;2022-08-23T01:06:05;16.10;99.90
19888;DHT22;10106;51.332;12.336;2022-08-23T01:08:33;16.00;99.90
19888;DHT22;10106;51.332;12.336;2022-08-23T01:11:08;16.00;99.90
19888;DHT22;10106;51.332;12.336;2022-08-23T01:13:39;16.00;99.90
19888;DHT22;10106;51.332;12.336;2022-08-23T01:16:16;15.90;99.90
19888;DHT22;10106;51.332;12.336;2022-08-23T01:18:43;15.90;99.90
19888;DHT22;10106;51.332;12.336;2022-08-23T01:21:20;16.00;99.90
19888;DHT22;10106;51.332;12.336;2022-08-23T01:23:55;15.90;99.90
19888;DHT22;10106;51.332;12.336;2022-08-23T01:26:23;15.90;99.90
19888;DHT22;10106;51.332;12.336;2022-08-23T01:28:50;15.80;99.90
19888;DHT22;10106;51.332;12.336;2022-08-23T01:31:17;15.80;99.90
19888;DHT22;10106;51.332;12.336;2022-08-23T01:33:45;15.80;99.90
19888;DHT22;10106;51.332;12.336;2022-08-23T01:36:13;15.80;99.90
19888;DHT22;10106;51.332;12.336;2022-08-23T01:38:39;15.80;99.90
19888;DHT22;10106;51.332;12.336;2022-08-23T01:41:05;15.80;99.90
19888;DHT22;10106;51.332;12.336;2022-08-23T01:43:31;15.80;99.90
19888;DHT22;10106;51.332;12.336;2022-08-23T01:46:05;15.80;99.90
19888;DHT22;10106;51.332;12.336;2022-08-23T01:48:31;15.80;99.90
19888;DHT22;10106;51.332;12.336;2022-08-23T01:51:18;15.70;99.90
19888;DHT22;10106;51.332;12.336;2022-08-23T01:53:44;15.80;99.90
19888;DHT22;10106;51.332;12.336;2022-08-23T01:56:11;15.80;99.90
19888;DHT22;10106;51.332;12.336;2022-08-23T01:58:36;15.80;99.90
19888;DHT22;10106;51.332;12.336;2022-08-23T02:01:02;15.80;99.90
19888;DHT22;10106;51.332;12.336;2022-08-23T02:03:29;15.80;99.90
19888;DHT22;10106;51.332;12.336;2022-08-23T02:05:55;15.70;99.90
19888;DHT22;10106;51.332;12.336;2022-08-23T02:08:21;15.70;99.90
19888;DHT22;10106;51.332;12.336;2022-08-23T02:11:11;15.70;99.90
19888;DHT22;10106;51.332;12.336;2022-08-23T02:13:36;15.80;99.90
19888;DHT22;10106;51.332;12.336;2022-08-23T02:16:03;15.70;99.90
19888;DHT22;10106;51.332;12.336;2022-08-23T02:18:29;15.70;99.90
19888;DHT22;10106;51.332;12.336;2022-08-23T02:20:55;15.60;99.90
19888;DHT22;10106;51.332;12.336;2022-08-23T02:23:21;15.60;99.90
19888;DHT22;10106;51.332;12.336;2022-08-23T02:25:48;15.60;99.90
19888;DHT22;10106;51.332;12.336;2022-08-23T02:28:16;15.50;99.90
19888;DHT22;10106;51.332;12.336;2022-08-23T02:30:44;15.50;99.90
19888;DHT22;10106;51.332;12.336;2022-08-23T02:33:10;15.50;99.90
19888;DHT22;10106;51.332;12.336;2022-08-23T02:35:37;15.50;99.90
19888;DHT22;10106;51.332;12.336;2022-08-23T02:38:04;15.50;99.90
19888;DHT22;10106;51.332;12.336;2022-08-23T02:40:30;15.40;99.90
19888;DHT22;10106;51.332;12.336;2022-08-23T02:42:56;15.40;99.90
19888;DHT22;10106;51.332;12.336;2022-08-23T02:45:21;15.30;99.90
19888;DHT22;10106;51.332;12.336;2022-08-23T02:47:48;15.20;99.90
19888;DHT22;10106;51.332;12.336;2022-08-23T02:50:14;15.30;99.90
19888;DHT22;10106;51.332;12.336;2022-08-23T02:52:40;15.30;99.90
19888;DHT22;10106;51.332;12.336;2022-08-23T02:55:06;15.30;99.90
19888;DHT22;10106;51.332;12.336;2022-08-23T02:57:32;15.30;99.90
19888;DHT22;10106;51.332;12.336;2022-08-23T02:59:58;15.30;99.90
19888;DHT22;10106;51.332;12.336;2022-08-23T03:02:23;15.30;99.90
19888;DHT22;10106;51.332;12.336;2022-08-23T03:04:49;15.30;99.90
19888;DHT22;10106;51.332;12.336;2022-08-23T03:07:15;15.20;99.90
19888;DHT22;10106;51.332;12.336;2022-08-23T03:09:42;15.10;99.90
19888;DHT22;10106;51.332;12.336;2022-08-23T03:12:07;15.10;99.90
19888;DHT22;10106;51.332;12.336;2022-08-23T03:14:35;15.20;99.90
19888;DHT22;10106;51.332;12.336;2022-08-23T03:17:03;15.10;99.90
19888;DHT22;10106;51.332;12.336;2022-08-23T03:19:29;15.00;99.90
19888;DHT22;10106;51.332;12.336;2022-08-23T03:21:54;15.00;99.90
19888;DHT22;10106;51.332;12.336;2022-08-23T03:24:20;15.00;99.90
19888;DHT22;10106;51.332;12.336;2022-08-23T03:26:45;15.00;99.90
19888;DHT22;10106;51.332;12.336;2022-08-23T03:29:12;15.00;99.90
19888;DHT22;10106;51.332;12.336;2022-08-23T03:31:37;14.90;99.90
19888;DHT22;10106;51.332;12.336;2022-08-23T03:34:04;14.90;99.90
19888;DHT22;10106;51.332;12.336;2022-08-23T03:36:30;15.00;99.90
19888;DHT22;10106;51.332;12.336;2022-08-23T03:38:56;15.00;99.90
19888;DHT22;10106;51.332;12.336;2022-08-23T03:41:22;15.00;99.90
19888;DHT22;10106;51.332;12.336;2022-08-23T03:43:47;15.10;99.90
19888;DHT22;10106;51.332;12.336;2022-08-23T03:46:13;15.10;99.90
19888;DHT22;10106;51.332;12.336;2022-08-23T03:48:52;15.10;99.90
19888;DHT22;10106;51.332;12.336;2022-08-23T03:51:18;15.00;99.90
19888;DHT22;10106;51.332;12.336;2022-08-23T03:53:45;15.00;99.90
19888;DHT22;10106;51.332;12.336;2022-08-23T03:56:30;15.10;99.90
19888;DHT22;10106;51.332;12.336;2022-08-23T03:58:57;15.10;99.90
19888;DHT22;10106;51.332;12.336;2022-08-23T04:01:23;15.10;99.90
19888;DHT22;10106;51.332;12.336;2022-08-23T04:03:49;15.10;99.90
19888;DHT22;10106;51.332;12.336;2022-08-23T04:06:15;15.00;99.90
19888;DHT22;10106;51.332;12.336;2022-08-23T04:08:42;15.00;99.90
19888;DHT22;10106;51.332;12.336;2022-08-23T04:11:08;15.00;99.90
19888;DHT22;10106;51.332;12.336;2022-08-23T04:13:37;15.00;99.90
19888;DHT22;10106;51.332;12.336;2022-08-23T04:16:04;15.10;99.90
19888;DHT22;10106;51.332;12.336;2022-08-23T04:18:31;15.10;99.90
19888;DHT22;10106;51.332;12.336;2022-08-23T04:21:00;15.20;99.90
19888;DHT22;10106;51.332;12.336;2022-08-23T04:23:27;15.20;99.90
19888;DHT22;10106;51.332;12.336;2022-08-23T04:25:58;15.30;99.90
19888;DHT22;10106;51.332;12.336;2022-08-23T04:28:24;15.30;99.90
19888;DHT22;10106;51.332;12.336;2022-08-23T04:30:50;15.40;99.90
19888;DHT22;10106;51.332;12.336;2022-08-23T04:33:17;15.50;99.90
19888;DHT22;10106;51.332;12.336;2022-08-23T04:35:43;15.60;99.90
19888;DHT22;10106;51.332;12.336;2022-08-23T04:38:10;15.70;99.90
19888;DHT22;10106;51.332;12.336;2022-08-23T04:40:36;15.80;99.90
19888;DHT22;10106;51.332;12.336;2022-08-23T04:43:20;15.90;99.90
19888;DHT22;10106;51.332;12.336;2022-08-23T04:45:46;15.90;99.90
19888;DHT22;10106;51.332;12.336;2022-08-23T04:48:12;16.00;99.90
19888;DHT22;10106;51.332;12.336;2022-08-23T04:50:41;16.10;99.90
19888;DHT22;10106;51.332;12.336;2022-08-23T04:53:08;16.10;99.90
19888;DHT22;10106;51.332;12.336;2022-08-23T04:55:34;16.20;99.90
19888;DHT22;10106;51.332;12.336;2022-08-23T04:57:59;16.20;99.90
19888;DHT22;10106;51.332;12.336;2022-08-23T05:05:36;16.40;99.90
19888;DHT22;10106;51.332;12.336;2022-08-23T05:08:03;16.60;99.90
19888;DHT22;10106;51.332;12.336;2022-08-23T05:10:28;16.80;99.90
19888;DHT22;10106;51.332;12.336;2022-08-23T05:12:54;16.90;99.90
19888;DHT22;10106;51.332;12.336;2022-08-23T05:15:20;17.00;99.90
19888;DHT22;10106;51.332;12.336;2022-08-23T05:17:45;17.10;99.90
19888;DHT22;10106;51.332;12.336;2022-08-23T05:20:11;17.10;99.90
19888;DHT22;10106;51.332;12.336;2022-08-23T05:22:39;17.20;99.90
19888;DHT22;10106;51.332;12.336;2022-08-23T05:25:06;17.20;99.90
19888;DHT22;10106;51.332;12.336;2022-08-23T05:27:31;17.30;99.90
19888;DHT22;10106;51.332;12.336;2022-08-23T05:29:57;17.30;99.90
19888;DHT22;10106;51.332;12.336;2022-08-23T05:32:23;17.40;99.90
19888;DHT22;10106;51.332;12.336;2022-08-23T05:34:49;17.50;99.90
19888;DHT22;10106;51.332;12.336;2022-08-23T05:37:15;17.60;99.90
19888;DHT22;10106;51.332;12.336;2022-08-23T05:39:44;17.60;99.90
19888;DHT22;10106;51.332;12.336;2022-08-23T05:42:11;17.90;99.90
19888;DHT22;10106;51.332;12.336;2022-08-23T05:44:37;18.00;99.90
19888;DHT22;10106;51.332;12.336;2022-08-23T05:47:05;18.10;99.90
19888;DHT22;10106;51.332;12.336;2022-08-23T05:49:31;18.20;99.90
19888;DHT22;10106;51.332;12.336;2022-08-23T05:51:57;18.20;99.90
19888;DHT22;10106;51.332;12.336;2022-08-23T05:54:23;18.30;99.90
19888;DHT22;10106;51.332;12.336;2022-08-23T05:56:48;18.50;99.90
19888;DHT22;10106;51.332;12.336;2022-08-23T05:59:15;18.50;99.90
19888;DHT22;10106;51.332;12.336;2022-08-23T06:01:42;18.50;99.90
19888;DHT22;10106;51.332;12.336;2022-08-23T06:04:09;18.70;99.90
19888;DHT22;10106;51.332;12.336;2022-08-23T06:06:36;18.90;99.90
19888;DHT22;10106;51.332;12.336;2022-08-23T06:09:04;18.90;99.90
19888;DHT22;10106;51.332;12.336;2022-08-23T06:11:30;19.00;99.90
19888;DHT22;10106;51.332;12.336;2022-08-23T06:13:59;19.00;99.90
19888;DHT22;10106;51.332;12.336;2022-08-23T06:16:31;19.10;99.90
19888;DHT22;10106;51.332;12.336;2022-08-23T06:18:58;19.10;99.90
19888;DHT22;10106;51.332;12.336;2022-08-23T06:21:27;19.10;99.90
19888;DHT22;10106;51.332;12.336;2022-08-23T06:23:53;19.20;99.90
19888;DHT22;10106;51.332;12.336;2022-08-23T06:26:27;19.30;99.90
19888;DHT22;10106;51.332;12.336;2022-08-23T06:28:57;19.30;99.90
19888;DHT22;10106;51.332;12.336;2022-08-23T06:31:25;19.30;99.90
19888;DHT22;10106;51.332;12.336;2022-08-23T06:34:12;19.30;99.90
19888;DHT22;10106;51.332;12.336;2022-08-23T06:36:38;19.30;99.90
19888;DHT22;10106;51.332;12.336;2022-08-23T06:39:09;19.10;99.90
19888;DHT22;10106;51.332;12.336;2022-08-23T06:41:35;19.10;99.90
19888;DHT22;10106;51.332;12.336;2022-08-23T06:44:01;19.20;99.90
19888;DHT22;10106;51.332;12.336;2022-08-23T06:46:29;19.30;99.90
19888;DHT22;10106;51.332;12.336;2022-08-23T06:48:56;19.20;99.90
19888;DHT22;10106;51.332;12.336;2022-08-23T06:51:31;19.20;99.90
19888;DHT22;10106;51.332;12.336;2022-08-23T06:53:59;19.30;99.90
19888;DHT22;10106;51.332;12.336;2022-08-23T06:56:27;19.40;99.90
19888;DHT22;10106;51.332;12.336;2022-08-23T06:58:53;19.40;99.90
19888;DHT22;10106;51.332;12.336;2022-08-23T07:01:24;19.60;99.90
19888;DHT22;10106;51.332;12.336;2022-08-23T07:03:55;19.60;99.90
19888;DHT22;10106;51.332;12.336;2022-08-23T07:06:25;19.80;99.90
19888;DHT22;10106;51.332;12.336;2022-08-23T07:08:55;19.70;99.90
19888;DHT22;10106;51.332;12.336;2022-08-23T07:11:25;19.80;99.90
19888;DHT22;10106;51.332;12.336;2022-08-23T07:14:09;19.90;99.90
19888;DHT22;10106;51.332;12.336;2022-08-23T07:16:56;20.00;99.90
19888;DHT22;10106;51.332;12.336;2022-08-23T07:19:36;20.10;99.90
19888;DHT22;10106;51.332;12.336;2022-08-23T07:22:03;20.20;99.90
19888;DHT22;10106;51.332;12.336;2022-08-23T07:24:30;20.30;99.90
19888;DHT22;10106;51.332;12.336;2022-08-23T07:26:57;20.50;99.90
19888;DHT22;10106;51.332;12.336;2022-08-23T07:29:23;20.60;99.90
19888;DHT22;10106;51.332;12.336;2022-08-23T07:31:52;20.60;99.90
19888;DHT22;10106;51.332;12.336;2022-08-23T07:34:19;20.60;99.90
19888;DHT22;10106;51.332;12.336;2022-08-23T07:36:46;20.60;99.90
19888;DHT22;10106;51.332;12.336;2022-08-23T07:39:31;20.60;99.90
19888;DHT22;10106;51.332;12.336;2022-08-23T07:42:00;20.60;99.90
19888;DHT22;10106;51.332;12.336;2022-08-23T07:44:28;20.70;99.90
19888;DHT22;10106;51.332;12.336;2022-08-23T07:46:54;20.80;99.90
19888;DHT22;10106;51.332;12.336;2022-08-23T07:49:20;20.80;99.90
19888;DHT22;10106;51.332;12.336;2022-08-23T07:51:49;20.80;99.90
19888;DHT22;10106;51.332;12.336;2022-08-23T07:54:16;20.80;99.90
19888;DHT22;10106;51.332;12.336;2022-08-23T07:56:42;20.90;99.90
19888;DHT22;10106;51.332;12.336;2022-08-23T07:59:15;20.90;99.90
19888;DHT22;10106;51.332;12.336;2022-08-23T08:01:44;21.10;99.90
19888;DHT22;10106;51.332;12.336;2022-08-23T08:04:09;21.10;99.90
19888;DHT22;10106;51.332;12.336;2022-08-23T08:06:44;21.40;99.90
19888;DHT22;10106;51.332;12.336;2022-08-23T08:09:11;21.60;99.90
19888;DHT22;10106;51.332;12.336;2022-08-23T08:11:39;21.70;99.90
19888;DHT22;10106;51.332;12.336;2022-08-23T08:14:08;21.80;99.90
19888;DHT22;10106;51.332;12.336;2022-08-23T08:16:40;22.00;99.90
19888;DHT22;10106;51.332;12.336;2022-08-23T08:19:07;22.10;99.90
19888;DHT22;10106;51.332;12.336;2022-08-23T08:21:36;22.20;99.90
19888;DHT22;10106;51.332;12.336;2022-08-23T08:24:03;22.30;99.90
19888;DHT22;10106;51.332;12.336;2022-08-23T08:26:37;22.60;99.90
19888;DHT22;10106;51.332;12.336;2022-08-23T08:29:03;22.80;99.90
19888;DHT22;10106;51.332;12.336;2022-08-23T08:31:29;23.10;99.90
19888;DHT22;10106;51.332;12.336;2022-08-23T08:33:55;23.30;99.90
19888;DHT22;10106;51.332;12.336;2022-08-23T08:36:46;23.50;99.90
19888;DHT22;10106;51.332;12.336;2022-08-23T08:39:15;23.80;99.90
19888;DHT22;10106;51.332;12.336;2022-08-23T08:44:48;24.10;99.90
19888;DHT22;10106;51.332;12.336;2022-08-23T08:50:01;23.80;99.90
19888;DHT22;10106;51.332;12.336;2022-08-23T08:52:39;23.80;99.90
19888;DHT22;10106;51.332;12.336;2022-08-23T08:55:18;24.00;99.90
19888;DHT22;10106;51.332;12.336;2022-08-23T08:57:52;24.00;99.90
19888;DHT22;10106;51.332;12.336;2022-08-23T09:00:21;24.30;99.90
19888;DHT22;10106;51.332;12.336;2022-08-23T09:02:48;24.60;99.90
19888;DHT22;10106;51.332;12.336;2022-08-23T09:05:18;24.70;99.90
19888;DHT22;10106;51.332;12.336;2022-08-23T09:11:44;24.90;99.90
19888;DHT22;10106;51.332;12.336;2022-08-23T09:17:06;25.00;99.90
19888;DHT22;10106;51.332;12.336;2022-08-23T09:19:35;25.20;99.90
19888;DHT22;10106;51.332;12.336;2022-08-23T09:22:13;25.50;99.90
19888;DHT22;10106;51.332;12.336;2022-08-23T09:24:45;25.70;99.90
19888;DHT22;10106;51.332;12.336;2022-08-23T09:27:11;26.00;99.90
19888;DHT22;10106;51.332;12.336;2022-08-23T09:29:39;26.40;99.90
19888;DHT22;10106;51.332;12.336;2022-08-23T09:32:32;26.50;99.90
19888;DHT22;10106;51.332;12.336;2022-08-23T09:35:08;26.40;99.90
19888;DHT22;10106;51.332;12.336;2022-08-23T09:40:47;26.40;99.90
19888;DHT22;10106;51.332;12.336;2022-08-23T09:43:21;26.90;99.90
19888;DHT22;10106;51.332;12.336;2022-08-23T09:48:41;28.70;96.70
19888;DHT22;10106;51.332;12.336;2022-08-23T09:51:34;29.10;94.10
19888;DHT22;10106;51.332;12.336;2022-08-23T09:56:43;31.90;87.20
19888;DHT22;10106;51.332;12.336;2022-08-23T09:59:40;34.20;77.50
19888;DHT22;10106;51.332;12.336;2022-08-23T10:02:22;35.40;69.60
19888;DHT22;10106;51.332;12.336;2022-08-23T10:09:49;37.00;59.20
19888;DHT22;10106;51.332;12.336;2022-08-23T10:12:15;34.40;60.00
19888;DHT22;10106;51.332;12.336;2022-08-23T10:14:50;32.20;64.20
19888;DHT22;10106;51.332;12.336;2022-08-23T10:17:39;30.70;68.90
19888;DHT22;10106;51.332;12.336;2022-08-23T10:26:02;27.50;83.40
19888;DHT22;10106;51.332;12.336;2022-08-23T10:31:46;26.50;90.20
19888;DHT22;10106;51.332;12.336;2022-08-23T10:39:55;26.60;92.10
19888;DHT22;10106;51.332;12.336;2022-08-23T10:42:34;26.80;92.50
19888;DHT22;10106;51.332;12.336;2022-08-23T10:45:42;27.00;91.90
19888;DHT22;10106;51.332;12.336;2022-08-23T10:48:28;27.70;86.10
19888;DHT22;10106;51.332;12.336;2022-08-23T10:51:11;27.70;84.80
19888;DHT22;10106;51.332;12.336;2022-08-23T10:53:44;27.50;84.80
19888;DHT22;10106;51.332;12.336;2022-08-23T10:56:13;27.10;86.10
19888;DHT22;10106;51.332;12.336;2022-08-23T11:01:47;26.10;90.20
19888;DHT22;10106;51.332;12.336;2022-08-23T11:07:20;25.30;92.10
19888;DHT22;10106;51.332;12.336;2022-08-23T11:12:50;24.70;95.90
19888;DHT22;10106;51.332;12.336;2022-08-23T11:18:43;24.60;98.20
19888;DHT22;10106;51.332;12.336;2022-08-23T11:31:56;24.90;98.30
19888;DHT22;10106;51.332;12.336;2022-08-23T11:34:24;25.10;98.40
19888;DHT22;10106;51.332;12.336;2022-08-23T11:37:26;25.20;98.40
19888;DHT22;10106;51.332;12.336;2022-08-23T11:40:10;25.20;98.30
19888;DHT22;10106;51.332;12.336;2022-08-23T11:45:28;26.00;97.10
19888;DHT22;10106;51.332;12.336;2022-08-23T11:56:11;27.30;91.00
19888;DHT22;10106;51.332;12.336;2022-08-23T12:01:32;26.70;91.50
19888;DHT22;10106;51.332;12.336;2022-08-23T12:04:07;26.40;92.00
19888;DHT22;10106;51.332;12.336;2022-08-23T12:06:48;26.40;92.50
19888;DHT22;10106;51.332;12.336;2022-08-23T12:16:57;27.20;91.70
19888;DHT22;10106;51.332;12.336;2022-08-23T12:22:27;27.50;90.90
19888;DHT22;10106;51.332;12.336;2022-08-23T12:25:06;27.30;91.10
19888;DHT22;10106;51.332;12.336;2022-08-23T12:40:58;25.70;91.90
19888;DHT22;10106;51.332;12.336;2022-08-23T12:43:35;25.50;92.70
19888;DHT22;10106;51.332;12.336;2022-08-23T12:46:05;25.60;93.10
19888;DHT22;10106;51.332;12.336;2022-08-23T12:48:45;25.60;93.40
19888;DHT22;10106;51.332;12.336;2022-08-23T12:51:11;25.80;93.70
19888;DHT22;10106;51.332;12.336;2022-08-23T12:53:40;25.90;93.40
19888;DHT22;10106;51.332;12.336;2022-08-23T12:56:25;25.90;92.90
19888;DHT22;10106;51.332;12.336;2022-08-23T12:58:55;25.80;92.40
19888;DHT22;10106;51.332;12.336;2022-08-23T13:01:31;25.90;92.00
19888;DHT22;10106;51.332;12.336;2022-08-23T13:04:12;25.80;91.80
19888;DHT22;10106;51.332;12.336;2022-08-23T13:09:23;25.90;91.80
19888;DHT22;10106;51.332;12.336;2022-08-23T13:11:50;26.00;91.40
19888;DHT22;10106;51.332;12.336;2022-08-23T13:17:11;26.40;91.20
19888;DHT22;10106;51.332;12.336;2022-08-23T13:19:37;26.20;91.30
19888;DHT22;10106;51.332;12.336;2022-08-23T13:25:23;26.20;91.00
19888;DHT22;10106;51.332;12.336;2022-08-23T13:32:43;26.80;89.50
19888;DHT22;10106;51.332;12.336;2022-08-23T13:46:08;26.50;89.00
19888;DHT22;10106;51.332;12.336;2022-08-23T13:48:35;26.10;90.00
19888;DHT22;10106;51.332;12.336;2022-08-23T13:53:48;25.90;91.20
19888;DHT22;10106;51.332;12.336;2022-08-23T13:56:14;25.80;91.80
19888;DHT22;10106;51.332;12.336;2022-08-23T13:58:41;25.60;92.20
19888;DHT22;10106;51.332;12.336;2022-08-23T14:01:14;25.40;92.60
19888;DHT22;10106;51.332;12.336;2022-08-23T14:03:41;25.20;92.90
19888;DHT22;10106;51.332;12.336;2022-08-23T14:06:07;25.00;93.40
19888;DHT22;10106;51.332;12.336;2022-08-23T14:08:32;24.70;93.50
19888;DHT22;10106;51.332;12.336;2022-08-23T14:10:58;24.60;93.60
19888;DHT22;10106;51.332;12.336;2022-08-23T14:13:27;24.60;94.00
19888;DHT22;10106;51.332;12.336;2022-08-23T14:15:53;24.60;93.40
19888;DHT22;10106;51.332;12.336;2022-08-23T14:18:20;24.70;92.90
19888;DHT22;10106;51.332;12.336;2022-08-23T14:20:45;24.80;92.90
19888;DHT22;10106;51.332;12.336;2022-08-23T14:23:12;25.00;92.70
19888;DHT22;10106;51.332;12.336;2022-08-23T14:25:38;25.00;92.60
19888;DHT22;10106;51.332;12.336;2022-08-23T14:28:04;25.00;92.30
19888;DHT22;10106;51.332;12.336;2022-08-23T14:30:38;25.20;91.20
19888;DHT22;10106;51.332;12.336;2022-08-23T14:33:05;25.20;90.80
19888;DHT22;10106;51.332;12.336;2022-08-23T14:35:32;25.20;90.10
19888;DHT22;10106;51.332;12.336;2022-08-23T14:37:58;25.10;88.60
19888;DHT22;10106;51.332;12.336;2022-08-23T14:40:23;25.10;89.00
19888;DHT22;10106;51.332;12.336;2022-08-23T14:42:49;25.10;88.70
19888;DHT22;10106;51.332;12.336;2022-08-23T14:45:16;25.10;88.40
19888;DHT22;10106;51.332;12.336;2022-08-23T14:47:42;25.10;88.40
19888;DHT22;10106;51.332;12.336;2022-08-23T14:50:09;25.10;88.50
19888;DHT22;10106;51.332;12.336;2022-08-23T14:52:46;25.20;88.50
19888;DHT22;10106;51.332;12.336;2022-08-23T14:55:13;25.20;87.90
19888;DHT22;10106;51.332;12.336;2022-08-23T14:58:00;25.20;87.10
19888;DHT22;10106;51.332;12.336;2022-08-23T15:00:30;25.20;88.30
19888;DHT22;10106;51.332;12.336;2022-08-23T15:03:02;25.20;87.60
19888;DHT22;10106;51.332;12.336;2022-08-23T15:05:28;25.20;87.90
19888;DHT22;10106;51.332;12.336;2022-08-23T15:07:54;25.10;86.90
19888;DHT22;10106;51.332;12.336;2022-08-23T15:10:20;25.10;87.40
19888;DHT22;10106;51.332;12.336;2022-08-23T15:12:46;25.10;88.20
19888;DHT22;10106;51.332;12.336;2022-08-23T15:15:15;25.10;87.50
19888;DHT22;10106;51.332;12.336;2022-08-23T15:17:53;25.00;87.60
19888;DHT22;10106;51.332;12.336;2022-08-23T15:20:26;25.00;87.70
19888;DHT22;10106;51.332;12.336;2022-08-23T15:22:52;25.10;87.30
19888;DHT22;10106;51.332;12.336;2022-08-23T15:25:18;25.10;88.40
19888;DHT22;10106;51.332;12.336;2022-08-23T15:27:45;25.10;89.70
19888;DHT22;10106;51.332;12.336;2022-08-23T15:30:13;25.10;89.30
19888;DHT22;10106;51.332;12.336;2022-08-23T15:32:39;25.10;89.60
19888;DHT22;10106;51.332;12.336;2022-08-23T15:35:05;25.10;89.40
19888;DHT22;10106;51.332;12.336;2022-08-23T15:37:32;25.10;89.90
19888;DHT22;10106;51.332;12.336;2022-08-23T15:39:58;25.00;90.30
19888;DHT22;10106;51.332;12.336;2022-08-23T15:42:24;25.00;90.30
19888;DHT22;10106;51.332;12.336;2022-08-23T15:44:50;24.90;90.70
19888;DHT22;10106;51.332;12.336;2022-08-23T15:47:22;24.80;90.80
19888;DHT22;10106;51.332;12.336;2022-08-23T15:49:49;24.80;90.80
19888;DHT22;10106;51.332;12.336;2022-08-23T15:52:15;24.80;90.90
19888;DHT22;10106;51.332;12.336;2022-08-23T15:54:45;24.80;91.00
19888;DHT22;10106;51.332;12.336;2022-08-23T15:57:22;24.80;91.00
19888;DHT22;10106;51.332;12.336;2022-08-23T15:59:58;24.80;91.20
19888;DHT22;10106;51.332;12.336;2022-08-23T16:02:24;24.70;91.20
19888;DHT22;10106;51.332;12.336;2022-08-23T16:04:49;24.70;91.00
19888;DHT22;10106;51.332;12.336;2022-08-23T16:07:16;24.60;91.10
19888;DHT22;10106;51.332;12.336;2022-08-23T16:09:42;24.60;91.00
19888;DHT22;10106;51.332;12.336;2022-08-23T16:12:09;24.60;90.60
19888;DHT22;10106;51.332;12.336;2022-08-23T16:14:36;24.40;90.40
19888;DHT22;10106;51.332;12.336;2022-08-23T16:17:03;24.40;90.70
19888;DHT22;10106;51.332;12.336;2022-08-23T16:19:29;24.30;91.00
19888;DHT22;10106;51.332;12.336;2022-08-23T16:21:55;24.30;91.20
19888;DHT22;10106;51.332;12.336;2022-08-23T16:24:22;24.20;91.30
19888;DHT22;10106;51.332;12.336;2022-08-23T16:26:53;24.20;91.30
19888;DHT22;10106;51.332;12.336;2022-08-23T16:29:21;24.10;91.60
19888;DHT22;10106;51.332;12.336;2022-08-23T16:31:53;24.10;92.00
19888;DHT22;10106;51.332;12.336;2022-08-23T16:34:20;24.10;92.20
19888;DHT22;10106;51.332;12.336;2022-08-23T16:36:50;24.10;91.80
19888;DHT22;10106;51.332;12.336;2022-08-23T16:39:16;24.00;91.30
19888;DHT22;10106;51.332;12.336;2022-08-23T16:41:42;24.00;91.70
19888;DHT22;10106;51.332;12.336;2022-08-23T16:44:08;24.00;91.80
19888;DHT22;10106;51.332;12.336;2022-08-23T16:46:35;24.00;91.90
19888;DHT22;10106;51.332;12.336;2022-08-23T16:49:10;24.00;92.00
19888;DHT22;10106;51.332;12.336;2022-08-23T16:51:42;23.90;92.30
19888;DHT22;10106;51.332;12.336;2022-08-23T16:54:08;23.90;92.70
19888;DHT22;10106;51.332;12.336;2022-08-23T16:56:35;23.80;93.50
19888;DHT22;10106;51.332;12.336;2022-08-23T16:59:05;23.80;93.80
19888;DHT22;10106;51.332;12.336;2022-08-23T17:04:08;23.70;94.80
19888;DHT22;10106;51.332;12.336;2022-08-23T17:06:34;23.70;95.50
19888;DHT22;10106;51.332;12.336;2022-08-23T17:08:59;23.60;97.20
19888;DHT22;10106;51.332;12.336;2022-08-23T17:11:25;23.60;98.40
19888;DHT22;10106;51.332;12.336;2022-08-23T17:13:51;23.50;99.40
19888;DHT22;10106;51.332;12.336;2022-08-23T17:16:16;23.50;99.90
19888;DHT22;10106;51.332;12.336;2022-08-23T17:18:43;23.40;99.90
19888;DHT22;10106;51.332;12.336;2022-08-23T17:21:13;23.30;99.90
19888;DHT22;10106;51.332;12.336;2022-08-23T17:23:38;23.30;99.90
19888;DHT22;10106;51.332;12.336;2022-08-23T17:26:04;23.20;99.90
19888;DHT22;10106;51.332;12.336;2022-08-23T17:28:30;23.20;99.90
19888;DHT22;10106;51.332;12.336;2022-08-23T17:30:55;23.10;99.90
19888;DHT22;10106;51.332;12.336;2022-08-23T17:33:21;23.10;99.90
19888;DHT22;10106;51.332;12.336;2022-08-23T17:35:47;23.00;99.90
19888;DHT22;10106;51.332;12.336;2022-08-23T17:38:12;23.00;99.90
19888;DHT22;10106;51.332;12.336;2022-08-23T17:40:39;22.90;99.90
19888;DHT22;10106;51.332;12.336;2022-08-23T17:43:05;22.80;99.90
19888;DHT22;10106;51.332;12.336;2022-08-23T17:45:44;22.80;99.90
19888;DHT22;10106;51.332;12.336;2022-08-23T17:48:11;22.70;99.90
19888;DHT22;10106;51.332;12.336;2022-08-23T17:50:37;22.60;99.90